sensor_id;sensor_type;location;lat;lon;timestamp;P1;durP1;ratioP1;P2;durP2;ratioP2
83288;SDS011;73193;50.866;5.420;2024-01-16T00:00:55;10.25;;;3.45;;
83288;SDS011;73193;50.866;5.420;2024-01-16T00:02:26;5.45;;;3.30;;
83288;SDS011;73193;50.866;5.420;2024-01-16T00:03:57;6.28;;;3.42;;
83288;SDS011;73193;50.866;5.420;2024-01-16T00:05:27;7.85;;;2.75;;
83288;SDS011;73193;50.866;5.420;2024-01-16T00:06:58;8.15;;;3.50;;
83288;SDS011;73193;50.866;5.420;2024-01-16T00:08:29;7.32;;;3.78;;
83288;SDS011;73193;50.866;5.420;2024-01-16T00:09:59;7.57;;;3.15;;
83288;SDS011;73193;50.866;5.420;2024-01-16T00:11:30;6.85;;;3.42;;
83288;SDS011;73193;50.866;5.420;2024-01-16T00:13:01;6.53;;;3.78;;
83288;SDS011;73193;50.866;5.420;2024-01-16T00:14:34;5.50;;;3.00;;
83288;SDS011;73193;50.866;5.420;2024-01-16T00:16:06;6.75;;;3.35;;
83288;SDS011;73193;50.866;5.420;2024-01-16T00:17:37;7.90;;;3.22;;
83288;SDS011;73193;50.866;5.420;2024-01-16T00:19:07;4.75;;;2.47;;
83288;SDS011;73193;50.866;5.420;2024-01-16T00:20:38;9.18;;;3.28;;
83288;SDS011;73193;50.866;5.420;2024-01-16T00:22:09;7.07;;;3.50;;
83288;SDS011;73193;50.866;5.420;2024-01-16T00:23:39;9.02;;;3.03;;
83288;SDS011;73193;50.866;5.420;2024-01-16T00:25:10;6.28;;;2.92;;
83288;SDS011;73193;50.866;5.420;2024-01-16T00:26:41;6.00;;;2.65;;
83288;SDS011;73193;50.866;5.420;2024-01-16T00:28:12;6.85;;;2.50;;
83288;SDS011;73193;50.866;5.420;2024-01-16T00:29:43;7.53;;;3.05;;
83288;SDS011;73193;50.866;5.420;2024-01-16T00:31:14;10.90;;;3.92;;
83288;SDS011;73193;50.866;5.420;2024-01-16T00:32:45;5.82;;;2.85;;
83288;SDS011;73193;50.866;5.420;2024-01-16T00:34:16;6.82;;;3.50;;
83288;SDS011;73193;50.866;5.420;2024-01-16T00:35:47;4.10;;;2.10;;
83288;SDS011;73193;50.866;5.420;2024-01-16T00:37:18;7.22;;;2.90;;
83288;SDS011;73193;50.866;5.420;2024-01-16T00:38:48;9.85;;;3.80;;
83288;SDS011;73193;50.866;5.420;2024-01-16T00:40:19;7.45;;;3.65;;
83288;SDS011;73193;50.866;5.420;2024-01-16T00:41:50;8.90;;;3.90;;
83288;SDS011;73193;50.866;5.420;2024-01-16T00:43:21;6.57;;;3.28;;
83288;SDS011;73193;50.866;5.420;2024-01-16T00:44:51;9.10;;;3.22;;
83288;SDS011;73193;50.866;5.420;2024-01-16T00:46:22;5.40;;;2.38;;
83288;SDS011;73193;50.866;5.420;2024-01-16T00:47:52;8.23;;;3.90;;
83288;SDS011;73193;50.866;5.420;2024-01-16T00:49:23;6.65;;;3.38;;
83288;SDS011;73193;50.866;5.420;2024-01-16T00:50:54;8.25;;;4.00;;
83288;SDS011;73193;50.866;5.420;2024-01-16T00:52:24;8.68;;;3.30;;
83288;SDS011;73193;50.866;5.420;2024-01-16T00:53:55;8.60;;;3.92;;
83288;SDS011;73193;50.866;5.420;2024-01-16T00:55:26;11.93;;;4.20;;
83288;SDS011;73193;50.866;5.420;2024-01-16T00:56:56;8.93;;;4.25;;
83288;SDS011;73193;50.866;5.420;2024-01-16T00:58:29;10.25;;;3.50;;
83288;SDS011;73193;50.866;5.420;2024-01-16T01:00:00;11.27;;;3.80;;
83288;SDS011;73193;50.866;5.420;2024-01-16T01:01:31;8.32;;;3.95;;
83288;SDS011;73193;50.866;5.420;2024-01-16T01:03:01;5.22;;;2.95;;
83288;SDS011;73193;50.866;5.420;2024-01-16T01:04:33;6.45;;;3.10;;
83288;SDS011;73193;50.866;5.420;2024-01-16T01:06:04;7.40;;;3.72;;
83288;SDS011;73193;50.866;5.420;2024-01-16T01:07:35;6.03;;;3.22;;
83288;SDS011;73193;50.866;5.420;2024-01-16T01:09:05;10.20;;;3.75;;
83288;SDS011;73193;50.866;5.420;2024-01-16T01:10:36;9.40;;;3.65;;
83288;SDS011;73193;50.866;5.420;2024-01-16T01:12:07;8.27;;;4.13;;
83288;SDS011;73193;50.866;5.420;2024-01-16T01:13:38;13.48;;;4.38;;
83288;SDS011;73193;50.866;5.420;2024-01-16T01:15:08;9.75;;;3.40;;
83288;SDS011;73193;50.866;5.420;2024-01-16T01:18:10;5.63;;;2.97;;
83288;SDS011;73193;50.866;5.420;2024-01-16T01:19:41;7.93;;;3.88;;
83288;SDS011;73193;50.866;5.420;2024-01-16T01:21:12;9.20;;;3.15;;
83288;SDS011;73193;50.866;5.420;2024-01-16T01:22:43;7.97;;;3.50;;
83288;SDS011;73193;50.866;5.420;2024-01-16T01:25:45;7.38;;;3.35;;
83288;SDS011;73193;50.866;5.420;2024-01-16T01:27:16;8.05;;;2.67;;
83288;SDS011;73193;50.866;5.420;2024-01-16T01:28:46;9.52;;;3.60;;
83288;SDS011;73193;50.866;5.420;2024-01-16T01:30:17;7.68;;;3.25;;
83288;SDS011;73193;50.866;5.420;2024-01-16T01:31:48;7.50;;;2.67;;
83288;SDS011;73193;50.866;5.420;2024-01-16T01:33:18;10.40;;;3.22;;
83288;SDS011;73193;50.866;5.420;2024-01-16T01:34:49;5.82;;;3.53;;
83288;SDS011;73193;50.866;5.420;2024-01-16T01:36:20;9.52;;;3.28;;
83288;SDS011;73193;50.866;5.420;2024-01-16T01:37:50;9.07;;;3.63;;
83288;SDS011;73193;50.866;5.420;2024-01-16T01:39:21;8.52;;;3.83;;
83288;SDS011;73193;50.866;5.420;2024-01-16T01:40:52;5.82;;;3.15;;
83288;SDS011;73193;50.866;5.420;2024-01-16T01:42:23;10.70;;;2.90;;
83288;SDS011;73193;50.866;5.420;2024-01-16T01:43:53;7.13;;;2.83;;
83288;SDS011;73193;50.866;5.420;2024-01-16T01:45:24;9.43;;;3.38;;
83288;SDS011;73193;50.866;5.420;2024-01-16T01:46:55;7.38;;;2.95;;
83288;SDS011;73193;50.866;5.420;2024-01-16T01:49:57;5.22;;;2.70;;
83288;SDS011;73193;50.866;5.420;2024-01-16T01:51:28;6.78;;;3.20;;
83288;SDS011;73193;50.866;5.420;2024-01-16T01:52:59;7.78;;;3.65;;
83288;SDS011;73193;50.866;5.420;2024-01-16T01:54:29;12.63;;;3.63;;
83288;SDS011;73193;50.866;5.420;2024-01-16T01:56:03;9.73;;;2.83;;
83288;SDS011;73193;50.866;5.420;2024-01-16T01:57:37;6.40;;;1.63;;
83288;SDS011;73193;50.866;5.420;2024-01-16T01:59:08;8.93;;;3.50;;
83288;SDS011;73193;50.866;5.420;2024-01-16T02:00:38;11.50;;;3.53;;
83288;SDS011;73193;50.866;5.420;2024-01-16T02:02:09;5.88;;;3.47;;
83288;SDS011;73193;50.866;5.420;2024-01-16T02:03:42;6.15;;;2.45;;
83288;SDS011;73193;50.866;5.420;2024-01-16T02:05:14;6.47;;;2.63;;
83288;SDS011;73193;50.866;5.420;2024-01-16T02:06:45;6.20;;;2.88;;
83288;SDS011;73193;50.866;5.420;2024-01-16T02:08:16;10.65;;;3.28;;
83288;SDS011;73193;50.866;5.420;2024-01-16T02:09:48;8.75;;;3.22;;
83288;SDS011;73193;50.866;5.420;2024-01-16T02:11:20;6.43;;;1.60;;
83288;SDS011;73193;50.866;5.420;2024-01-16T02:12:50;6.07;;;2.90;;
83288;SDS011;73193;50.866;5.420;2024-01-16T02:14:21;9.18;;;3.03;;
83288;SDS011;73193;50.866;5.420;2024-01-16T02:15:51;7.53;;;3.20;;
83288;SDS011;73193;50.866;5.420;2024-01-16T02:17:22;8.27;;;2.58;;
83288;SDS011;73193;50.866;5.420;2024-01-16T02:18:53;8.55;;;3.10;;
83288;SDS011;73193;50.866;5.420;2024-01-16T02:20:23;10.10;;;2.70;;
83288;SDS011;73193;50.866;5.420;2024-01-16T02:21:54;9.25;;;3.10;;
83288;SDS011;73193;50.866;5.420;2024-01-16T02:23:29;6.55;;;2.58;;
83288;SDS011;73193;50.866;5.420;2024-01-16T02:25:01;6.88;;;2.38;;
83288;SDS011;73193;50.866;5.420;2024-01-16T02:26:32;6.80;;;3.10;;
83288;SDS011;73193;50.866;5.420;2024-01-16T02:28:03;8.15;;;2.35;;
83288;SDS011;73193;50.866;5.420;2024-01-16T02:29:34;5.50;;;2.60;;
83288;SDS011;73193;50.866;5.420;2024-01-16T02:31:11;6.82;;;2.78;;
83288;SDS011;73193;50.866;5.420;2024-01-16T02:32:42;2.58;;;1.65;;
83288;SDS011;73193;50.866;5.420;2024-01-16T02:34:13;5.03;;;2.53;;
83288;SDS011;73193;50.866;5.420;2024-01-16T02:35:43;6.30;;;2.72;;
83288;SDS011;73193;50.866;5.420;2024-01-16T02:37:14;4.35;;;1.90;;
83288;SDS011;73193;50.866;5.420;2024-01-16T02:38:45;7.22;;;2.92;;
83288;SDS011;73193;50.866;5.420;2024-01-16T02:40:15;5.20;;;2.60;;
83288;SDS011;73193;50.866;5.420;2024-01-16T02:41:46;5.15;;;2.10;;
83288;SDS011;73193;50.866;5.420;2024-01-16T02:43:17;6.18;;;2.33;;
83288;SDS011;73193;50.866;5.420;2024-01-16T02:44:47;5.30;;;2.17;;
83288;SDS011;73193;50.866;5.420;2024-01-16T02:46:18;12.77;;;2.65;;
83288;SDS011;73193;50.866;5.420;2024-01-16T02:47:49;6.47;;;1.95;;
83288;SDS011;73193;50.866;5.420;2024-01-16T02:49:20;7.60;;;2.85;;
83288;SDS011;73193;50.866;5.420;2024-01-16T02:50:51;5.55;;;2.40;;
83288;SDS011;73193;50.866;5.420;2024-01-16T02:52:21;4.13;;;2.03;;
83288;SDS011;73193;50.866;5.420;2024-01-16T02:53:52;4.47;;;1.88;;
83288;SDS011;73193;50.866;5.420;2024-01-16T02:55:23;4.07;;;2.10;;
83288;SDS011;73193;50.866;5.420;2024-01-16T02:56:54;6.60;;;2.60;;
83288;SDS011;73193;50.866;5.420;2024-01-16T02:58:28;5.10;;;2.03;;
83288;SDS011;73193;50.866;5.420;2024-01-16T03:00:00;6.85;;;2.08;;
83288;SDS011;73193;50.866;5.420;2024-01-16T03:01:30;8.35;;;2.15;;
83288;SDS011;73193;50.866;5.420;2024-01-16T03:03:01;7.40;;;3.00;;
83288;SDS011;73193;50.866;5.420;2024-01-16T03:04:32;8.25;;;3.08;;
83288;SDS011;73193;50.866;5.420;2024-01-16T03:06:02;7.13;;;2.05;;
83288;SDS011;73193;50.866;5.420;2024-01-16T03:07:34;6.68;;;2.55;;
83288;SDS011;73193;50.866;5.420;2024-01-16T03:09:04;6.03;;;2.38;;
83288;SDS011;73193;50.866;5.420;2024-01-16T03:10:36;6.70;;;2.70;;
83288;SDS011;73193;50.866;5.420;2024-01-16T03:12:07;4.78;;;2.15;;
83288;SDS011;73193;50.866;5.420;2024-01-16T03:13:38;4.88;;;2.20;;
83288;SDS011;73193;50.866;5.420;2024-01-16T03:15:09;6.03;;;2.47;;
83288;SDS011;73193;50.866;5.420;2024-01-16T03:16:40;5.05;;;2.45;;
83288;SDS011;73193;50.866;5.420;2024-01-16T03:18:10;6.05;;;3.08;;
83288;SDS011;73193;50.866;5.420;2024-01-16T03:19:41;4.63;;;2.10;;
83288;SDS011;73193;50.866;5.420;2024-01-16T03:21:13;7.10;;;2.25;;
83288;SDS011;73193;50.866;5.420;2024-01-16T03:22:44;4.13;;;2.30;;
83288;SDS011;73193;50.866;5.420;2024-01-16T03:24:15;6.78;;;2.35;;
83288;SDS011;73193;50.866;5.420;2024-01-16T03:25:46;5.10;;;2.33;;
83288;SDS011;73193;50.866;5.420;2024-01-16T03:27:17;4.22;;;2.15;;
83288;SDS011;73193;50.866;5.420;2024-01-16T03:28:48;5.40;;;2.13;;
83288;SDS011;73193;50.866;5.420;2024-01-16T03:30:19;4.22;;;1.98;;
83288;SDS011;73193;50.866;5.420;2024-01-16T03:31:49;7.95;;;2.53;;
83288;SDS011;73193;50.866;5.420;2024-01-16T03:33:20;8.43;;;2.42;;
83288;SDS011;73193;50.866;5.420;2024-01-16T03:34:51;5.30;;;2.00;;
83288;SDS011;73193;50.866;5.420;2024-01-16T03:36:21;5.82;;;2.08;;
83288;SDS011;73193;50.866;5.420;2024-01-16T03:37:52;3.22;;;1.88;;
83288;SDS011;73193;50.866;5.420;2024-01-16T03:39:22;7.47;;;2.75;;
83288;SDS011;73193;50.866;5.420;2024-01-16T03:40:53;4.65;;;1.65;;
83288;SDS011;73193;50.866;5.420;2024-01-16T03:42:24;6.07;;;2.10;;
83288;SDS011;73193;50.866;5.420;2024-01-16T03:43:54;7.57;;;2.15;;
83288;SDS011;73193;50.866;5.420;2024-01-16T03:45:26;3.85;;;2.20;;
83288;SDS011;73193;50.866;5.420;2024-01-16T03:46:57;7.72;;;2.75;;
83288;SDS011;73193;50.866;5.420;2024-01-16T03:48:28;5.75;;;1.70;;
83288;SDS011;73193;50.866;5.420;2024-01-16T03:49:59;6.15;;;2.22;;
83288;SDS011;73193;50.866;5.420;2024-01-16T03:51:29;12.15;;;3.00;;
83288;SDS011;73193;50.866;5.420;2024-01-16T03:53:00;9.13;;;2.97;;
83288;SDS011;73193;50.866;5.420;2024-01-16T03:54:30;7.28;;;2.35;;
83288;SDS011;73193;50.866;5.420;2024-01-16T03:56:01;7.38;;;2.65;;
83288;SDS011;73193;50.866;5.420;2024-01-16T03:57:32;4.55;;;2.03;;
83288;SDS011;73193;50.866;5.420;2024-01-16T03:59:02;6.85;;;2.38;;
83288;SDS011;73193;50.866;5.420;2024-01-16T04:00:33;5.85;;;2.08;;
83288;SDS011;73193;50.866;5.420;2024-01-16T04:02:04;8.82;;;2.13;;
83288;SDS011;73193;50.866;5.420;2024-01-16T04:03:35;4.85;;;2.00;;
83288;SDS011;73193;50.866;5.420;2024-01-16T04:05:06;7.00;;;2.08;;
83288;SDS011;73193;50.866;5.420;2024-01-16T04:06:37;7.18;;;2.20;;
83288;SDS011;73193;50.866;5.420;2024-01-16T04:08:07;4.88;;;2.05;;
83288;SDS011;73193;50.866;5.420;2024-01-16T04:09:38;5.90;;;1.98;;
83288;SDS011;73193;50.866;5.420;2024-01-16T04:11:12;6.88;;;2.47;;
83288;SDS011;73193;50.866;5.420;2024-01-16T04:12:43;5.20;;;1.90;;
83288;SDS011;73193;50.866;5.420;2024-01-16T04:14:14;4.88;;;1.83;;
83288;SDS011;73193;50.866;5.420;2024-01-16T04:15:44;4.05;;;2.40;;
83288;SDS011;73193;50.866;5.420;2024-01-16T04:17:15;4.40;;;2.20;;
83288;SDS011;73193;50.866;5.420;2024-01-16T04:18:46;4.35;;;2.30;;
83288;SDS011;73193;50.866;5.420;2024-01-16T04:20:17;6.95;;;2.38;;
83288;SDS011;73193;50.866;5.420;2024-01-16T04:21:47;6.43;;;2.50;;
83288;SDS011;73193;50.866;5.420;2024-01-16T04:23:18;9.38;;;2.67;;
83288;SDS011;73193;50.866;5.420;2024-01-16T04:24:49;6.03;;;2.30;;
83288;SDS011;73193;50.866;5.420;2024-01-16T04:26:19;1.77;;;1.13;;
83288;SDS011;73193;50.866;5.420;2024-01-16T04:29:22;9.75;;;2.78;;
83288;SDS011;73193;50.866;5.420;2024-01-16T04:30:53;5.88;;;2.53;;
83288;SDS011;73193;50.866;5.420;2024-01-16T04:32:23;6.13;;;2.20;;
83288;SDS011;73193;50.866;5.420;2024-01-16T04:33:54;6.85;;;2.47;;
83288;SDS011;73193;50.866;5.420;2024-01-16T04:35:25;3.70;;;1.92;;
83288;SDS011;73193;50.866;5.420;2024-01-16T04:36:55;6.63;;;2.28;;
83288;SDS011;73193;50.866;5.420;2024-01-16T04:38:26;7.50;;;2.28;;
83288;SDS011;73193;50.866;5.420;2024-01-16T04:39:56;8.02;;;2.55;;
83288;SDS011;73193;50.866;5.420;2024-01-16T04:41:29;7.70;;;2.70;;
83288;SDS011;73193;50.866;5.420;2024-01-16T04:42:59;4.78;;;2.53;;
83288;SDS011;73193;50.866;5.420;2024-01-16T04:44:30;4.93;;;2.35;;
83288;SDS011;73193;50.866;5.420;2024-01-16T04:46:01;6.80;;;2.13;;
83288;SDS011;73193;50.866;5.420;2024-01-16T04:47:31;8.60;;;2.15;;
83288;SDS011;73193;50.866;5.420;2024-01-16T04:49:02;6.10;;;2.47;;
83288;SDS011;73193;50.866;5.420;2024-01-16T04:50:33;6.28;;;2.47;;
83288;SDS011;73193;50.866;5.420;2024-01-16T04:52:04;4.53;;;2.15;;
83288;SDS011;73193;50.866;5.420;2024-01-16T04:53:34;4.63;;;2.70;;
83288;SDS011;73193;50.866;5.420;2024-01-16T04:55:06;6.70;;;2.63;;
83288;SDS011;73193;50.866;5.420;2024-01-16T04:56:37;10.30;;;2.55;;
83288;SDS011;73193;50.866;5.420;2024-01-16T04:58:08;6.28;;;2.35;;
83288;SDS011;73193;50.866;5.420;2024-01-16T04:59:38;6.10;;;2.42;;
83288;SDS011;73193;50.866;5.420;2024-01-16T05:01:09;5.90;;;2.65;;
83288;SDS011;73193;50.866;5.420;2024-01-16T05:02:40;5.45;;;2.17;;
83288;SDS011;73193;50.866;5.420;2024-01-16T05:04:10;6.07;;;2.45;;
83288;SDS011;73193;50.866;5.420;2024-01-16T05:05:41;8.63;;;3.05;;
83288;SDS011;73193;50.866;5.420;2024-01-16T05:07:12;4.80;;;2.50;;
83288;SDS011;73193;50.866;5.420;2024-01-16T05:08:43;6.88;;;2.47;;
83288;SDS011;73193;50.866;5.420;2024-01-16T05:10:13;8.68;;;2.80;;
83288;SDS011;73193;50.866;5.420;2024-01-16T05:11:44;7.05;;;2.92;;
83288;SDS011;73193;50.866;5.420;2024-01-16T05:13:15;5.72;;;2.75;;
83288;SDS011;73193;50.866;5.420;2024-01-16T05:14:45;7.40;;;2.75;;
83288;SDS011;73193;50.866;5.420;2024-01-16T05:16:16;5.93;;;2.47;;
83288;SDS011;73193;50.866;5.420;2024-01-16T05:17:47;2.85;;;1.60;;
83288;SDS011;73193;50.866;5.420;2024-01-16T05:19:17;3.00;;;2.30;;
83288;SDS011;73193;50.866;5.420;2024-01-16T05:20:48;9.90;;;3.30;;
83288;SDS011;73193;50.866;5.420;2024-01-16T05:22:19;8.80;;;3.00;;
83288;SDS011;73193;50.866;5.420;2024-01-16T05:23:50;6.38;;;2.78;;
83288;SDS011;73193;50.866;5.420;2024-01-16T05:25:20;6.53;;;2.83;;
83288;SDS011;73193;50.866;5.420;2024-01-16T05:26:52;6.72;;;2.85;;
83288;SDS011;73193;50.866;5.420;2024-01-16T05:28:22;10.70;;;2.85;;
83288;SDS011;73193;50.866;5.420;2024-01-16T05:29:53;12.00;;;2.72;;
83288;SDS011;73193;50.866;5.420;2024-01-16T05:31:24;8.57;;;3.30;;
83288;SDS011;73193;50.866;5.420;2024-01-16T05:32:55;8.23;;;3.25;;
83288;SDS011;73193;50.866;5.420;2024-01-16T05:34:26;7.47;;;2.80;;
83288;SDS011;73193;50.866;5.420;2024-01-16T05:35:57;7.38;;;3.25;;
83288;SDS011;73193;50.866;5.420;2024-01-16T05:37:28;6.20;;;2.53;;
83288;SDS011;73193;50.866;5.420;2024-01-16T05:38:59;6.13;;;2.83;;
83288;SDS011;73193;50.866;5.420;2024-01-16T05:40:30;6.55;;;2.10;;
83288;SDS011;73193;50.866;5.420;2024-01-16T05:42:01;7.25;;;3.08;;
83288;SDS011;73193;50.866;5.420;2024-01-16T05:43:32;6.05;;;2.72;;
83288;SDS011;73193;50.866;5.420;2024-01-16T05:45:03;4.30;;;2.47;;
83288;SDS011;73193;50.866;5.420;2024-01-16T05:46:34;7.53;;;3.13;;
83288;SDS011;73193;50.866;5.420;2024-01-16T05:48:05;9.48;;;3.60;;
83288;SDS011;73193;50.866;5.420;2024-01-16T05:49:37;6.05;;;3.05;;
83288;SDS011;73193;50.866;5.420;2024-01-16T05:51:07;8.57;;;2.95;;
83288;SDS011;73193;50.866;5.420;2024-01-16T05:52:38;8.88;;;2.78;;
83288;SDS011;73193;50.866;5.420;2024-01-16T05:54:10;6.90;;;3.05;;
83288;SDS011;73193;50.866;5.420;2024-01-16T05:55:41;7.68;;;3.05;;
83288;SDS011;73193;50.866;5.420;2024-01-16T05:57:12;12.40;;;3.63;;
83288;SDS011;73193;50.866;5.420;2024-01-16T05:58:42;9.55;;;3.00;;
83288;SDS011;73193;50.866;5.420;2024-01-16T06:00:13;8.15;;;3.28;;
83288;SDS011;73193;50.866;5.420;2024-01-16T06:01:44;7.53;;;3.15;;
83288;SDS011;73193;50.866;5.420;2024-01-16T06:03:15;4.78;;;2.80;;
83288;SDS011;73193;50.866;5.420;2024-01-16T06:04:45;6.85;;;3.05;;
83288;SDS011;73193;50.866;5.420;2024-01-16T06:06:16;6.05;;;2.90;;
83288;SDS011;73193;50.866;5.420;2024-01-16T06:07:47;5.60;;;3.08;;
83288;SDS011;73193;50.866;5.420;2024-01-16T06:09:17;6.60;;;3.17;;
83288;SDS011;73193;50.866;5.420;2024-01-16T06:10:48;9.55;;;2.65;;
83288;SDS011;73193;50.866;5.420;2024-01-16T06:12:19;5.65;;;2.53;;
83288;SDS011;73193;50.866;5.420;2024-01-16T06:13:50;5.30;;;3.00;;
83288;SDS011;73193;50.866;5.420;2024-01-16T06:15:20;7.65;;;2.80;;
83288;SDS011;73193;50.866;5.420;2024-01-16T06:16:51;8.40;;;3.47;;
83288;SDS011;73193;50.866;5.420;2024-01-16T06:18:22;7.32;;;3.88;;
83288;SDS011;73193;50.866;5.420;2024-01-16T06:19:53;10.77;;;3.50;;
83288;SDS011;73193;50.866;5.420;2024-01-16T06:21:23;6.47;;;2.97;;
83288;SDS011;73193;50.866;5.420;2024-01-16T06:22:54;5.68;;;3.00;;
83288;SDS011;73193;50.866;5.420;2024-01-16T06:24:25;8.63;;;3.65;;
83288;SDS011;73193;50.866;5.420;2024-01-16T06:25:56;6.75;;;3.35;;
83288;SDS011;73193;50.866;5.420;2024-01-16T06:27:26;6.43;;;2.83;;
83288;SDS011;73193;50.866;5.420;2024-01-16T06:28:57;9.82;;;3.78;;
83288;SDS011;73193;50.866;5.420;2024-01-16T06:30:28;8.73;;;3.50;;
83288;SDS011;73193;50.866;5.420;2024-01-16T06:31:58;13.68;;;4.25;;
83288;SDS011;73193;50.866;5.420;2024-01-16T06:33:29;12.10;;;2.90;;
83288;SDS011;73193;50.866;5.420;2024-01-16T06:35:00;7.18;;;3.60;;
83288;SDS011;73193;50.866;5.420;2024-01-16T06:36:31;9.73;;;3.70;;
83288;SDS011;73193;50.866;5.420;2024-01-16T06:38:01;8.98;;;3.30;;
83288;SDS011;73193;50.866;5.420;2024-01-16T06:39:32;9.02;;;3.20;;
83288;SDS011;73193;50.866;5.420;2024-01-16T06:41:03;8.70;;;3.33;;
83288;SDS011;73193;50.866;5.420;2024-01-16T06:42:34;8.27;;;3.53;;
83288;SDS011;73193;50.866;5.420;2024-01-16T06:44:06;7.60;;;2.38;;
83288;SDS011;73193;50.866;5.420;2024-01-16T06:45:37;10.60;;;3.13;;
83288;SDS011;73193;50.866;5.420;2024-01-16T06:47:07;12.50;;;4.15;;
83288;SDS011;73193;50.866;5.420;2024-01-16T06:48:38;8.65;;;3.65;;
83288;SDS011;73193;50.866;5.420;2024-01-16T06:50:09;7.28;;;3.33;;
83288;SDS011;73193;50.866;5.420;2024-01-16T06:51:39;12.13;;;4.10;;
83288;SDS011;73193;50.866;5.420;2024-01-16T06:53:10;8.52;;;3.33;;
83288;SDS011;73193;50.866;5.420;2024-01-16T06:54:41;10.85;;;3.75;;
83288;SDS011;73193;50.866;5.420;2024-01-16T06:56:11;8.45;;;3.58;;
83288;SDS011;73193;50.866;5.420;2024-01-16T06:57:42;9.50;;;4.53;;
83288;SDS011;73193;50.866;5.420;2024-01-16T06:59:12;8.40;;;3.50;;
83288;SDS011;73193;50.866;5.420;2024-01-16T07:00:43;8.55;;;3.22;;
83288;SDS011;73193;50.866;5.420;2024-01-16T07:02:14;8.88;;;3.42;;
83288;SDS011;73193;50.866;5.420;2024-01-16T07:03:45;9.75;;;3.97;;
83288;SDS011;73193;50.866;5.420;2024-01-16T07:05:16;10.38;;;3.70;;
83288;SDS011;73193;50.866;5.420;2024-01-16T07:06:46;10.15;;;3.33;;
83288;SDS011;73193;50.866;5.420;2024-01-16T07:08:17;9.25;;;3.63;;
83288;SDS011;73193;50.866;5.420;2024-01-16T07:09:48;11.45;;;3.85;;
83288;SDS011;73193;50.866;5.420;2024-01-16T07:11:18;8.15;;;3.63;;
83288;SDS011;73193;50.866;5.420;2024-01-16T07:12:51;7.55;;;3.00;;
83288;SDS011;73193;50.866;5.420;2024-01-16T07:14:21;7.30;;;3.88;;
83288;SDS011;73193;50.866;5.420;2024-01-16T07:15:52;8.15;;;3.38;;
83288;SDS011;73193;50.866;5.420;2024-01-16T07:17:22;12.38;;;3.90;;
83288;SDS011;73193;50.866;5.420;2024-01-16T07:18:53;12.15;;;3.97;;
83288;SDS011;73193;50.866;5.420;2024-01-16T07:20:25;5.82;;;2.58;;
83288;SDS011;73193;50.866;5.420;2024-01-16T07:21:56;5.43;;;3.17;;
83288;SDS011;73193;50.866;5.420;2024-01-16T07:23:26;8.98;;;3.80;;
83288;SDS011;73193;50.866;5.420;2024-01-16T07:24:57;13.27;;;2.80;;
83288;SDS011;73193;50.866;5.420;2024-01-16T07:26:28;5.95;;;3.13;;
83288;SDS011;73193;50.866;5.420;2024-01-16T07:27:59;6.50;;;3.10;;
83288;SDS011;73193;50.866;5.420;2024-01-16T07:29:30;6.65;;;3.50;;
83288;SDS011;73193;50.866;5.420;2024-01-16T07:31:01;7.53;;;3.35;;
83288;SDS011;73193;50.866;5.420;2024-01-16T07:32:31;7.22;;;3.15;;
83288;SDS011;73193;50.866;5.420;2024-01-16T07:34:02;7.53;;;3.38;;
83288;SDS011;73193;50.866;5.420;2024-01-16T07:35:33;5.93;;;2.55;;
83288;SDS011;73193;50.866;5.420;2024-01-16T07:37:04;11.50;;;3.60;;
83288;SDS011;73193;50.866;5.420;2024-01-16T07:38:34;5.75;;;3.30;;
83288;SDS011;73193;50.866;5.420;2024-01-16T07:40:06;10.65;;;3.42;;
83288;SDS011;73193;50.866;5.420;2024-01-16T07:41:39;10.43;;;3.50;;
83288;SDS011;73193;50.866;5.420;2024-01-16T07:43:10;9.05;;;3.38;;
83288;SDS011;73193;50.866;5.420;2024-01-16T07:44:41;8.85;;;3.08;;
83288;SDS011;73193;50.866;5.420;2024-01-16T07:46:12;10.70;;;4.10;;
83288;SDS011;73193;50.866;5.420;2024-01-16T07:47:43;7.22;;;2.90;;
83288;SDS011;73193;50.866;5.420;2024-01-16T07:49:13;9.77;;;3.38;;
83288;SDS011;73193;50.866;5.420;2024-01-16T07:50:45;7.97;;;3.40;;
83288;SDS011;73193;50.866;5.420;2024-01-16T07:52:15;9.18;;;3.60;;
83288;SDS011;73193;50.866;5.420;2024-01-16T07:53:46;10.90;;;3.42;;
83288;SDS011;73193;50.866;5.420;2024-01-16T07:55:18;6.20;;;3.15;;
83288;SDS011;73193;50.866;5.420;2024-01-16T07:56:49;7.85;;;3.63;;
83288;SDS011;73193;50.866;5.420;2024-01-16T07:58:20;8.18;;;3.65;;
83288;SDS011;73193;50.866;5.420;2024-01-16T07:59:51;5.63;;;3.08;;
83288;SDS011;73193;50.866;5.420;2024-01-16T08:01:21;7.30;;;3.53;;
83288;SDS011;73193;50.866;5.420;2024-01-16T08:02:52;8.48;;;3.72;;
83288;SDS011;73193;50.866;5.420;2024-01-16T08:04:23;12.02;;;3.80;;
83288;SDS011;73193;50.866;5.420;2024-01-16T08:05:53;8.50;;;3.53;;
83288;SDS011;73193;50.866;5.420;2024-01-16T08:07:24;11.27;;;3.20;;
83288;SDS011;73193;50.866;5.420;2024-01-16T08:08:55;8.57;;;3.38;;
83288;SDS011;73193;50.866;5.420;2024-01-16T08:10:25;9.07;;;3.10;;
83288;SDS011;73193;50.866;5.420;2024-01-16T08:11:56;6.72;;;3.13;;
83288;SDS011;73193;50.866;5.420;2024-01-16T08:13:27;10.35;;;4.03;;
83288;SDS011;73193;50.866;5.420;2024-01-16T08:14:58;9.07;;;3.38;;
83288;SDS011;73193;50.866;5.420;2024-01-16T08:16:29;10.43;;;4.05;;
83288;SDS011;73193;50.866;5.420;2024-01-16T08:18:00;10.18;;;3.90;;
83288;SDS011;73193;50.866;5.420;2024-01-16T08:19:30;9.38;;;4.45;;
83288;SDS011;73193;50.866;5.420;2024-01-16T08:21:02;9.20;;;3.42;;
83288;SDS011;73193;50.866;5.420;2024-01-16T08:22:33;7.95;;;3.63;;
83288;SDS011;73193;50.866;5.420;2024-01-16T08:24:04;7.78;;;4.07;;
83288;SDS011;73193;50.866;5.420;2024-01-16T08:25:34;11.45;;;3.75;;
83288;SDS011;73193;50.866;5.420;2024-01-16T08:27:05;7.80;;;3.10;;
83288;SDS011;73193;50.866;5.420;2024-01-16T08:28:36;8.90;;;3.42;;
83288;SDS011;73193;50.866;5.420;2024-01-16T08:30:08;9.88;;;3.70;;
83288;SDS011;73193;50.866;5.420;2024-01-16T08:31:39;7.18;;;2.88;;
83288;SDS011;73193;50.866;5.420;2024-01-16T08:33:11;6.82;;;3.63;;
83288;SDS011;73193;50.866;5.420;2024-01-16T08:34:42;11.60;;;4.10;;
83288;SDS011;73193;50.866;5.420;2024-01-16T08:36:14;13.95;;;3.92;;
83288;SDS011;73193;50.866;5.420;2024-01-16T08:37:45;8.85;;;3.83;;
83288;SDS011;73193;50.866;5.420;2024-01-16T08:39:15;7.00;;;3.53;;
83288;SDS011;73193;50.866;5.420;2024-01-16T08:40:46;7.45;;;3.15;;
83288;SDS011;73193;50.866;5.420;2024-01-16T08:42:18;7.97;;;3.60;;
83288;SDS011;73193;50.866;5.420;2024-01-16T08:43:49;7.90;;;3.65;;
83288;SDS011;73193;50.866;5.420;2024-01-16T08:46:51;8.32;;;3.65;;
83288;SDS011;73193;50.866;5.420;2024-01-16T08:48:22;7.97;;;3.42;;
83288;SDS011;73193;50.866;5.420;2024-01-16T08:49:53;5.72;;;2.90;;
83288;SDS011;73193;50.866;5.420;2024-01-16T08:51:23;6.28;;;3.13;;
83288;SDS011;73193;50.866;5.420;2024-01-16T08:52:56;7.97;;;3.60;;
83288;SDS011;73193;50.866;5.420;2024-01-16T08:54:26;6.00;;;3.15;;
83288;SDS011;73193;50.866;5.420;2024-01-16T08:55:57;10.05;;;3.53;;
83288;SDS011;73193;50.866;5.420;2024-01-16T08:57:27;9.00;;;3.85;;
83288;SDS011;73193;50.866;5.420;2024-01-16T08:58:58;7.38;;;3.33;;
83288;SDS011;73193;50.866;5.420;2024-01-16T09:00:29;5.00;;;2.65;;
83288;SDS011;73193;50.866;5.420;2024-01-16T09:02:00;8.18;;;3.97;;
83288;SDS011;73193;50.866;5.420;2024-01-16T09:03:31;5.53;;;2.97;;
83288;SDS011;73193;50.866;5.420;2024-01-16T09:05:03;6.35;;;3.20;;
83288;SDS011;73193;50.866;5.420;2024-01-16T09:06:35;4.00;;;1.85;;
83288;SDS011;73193;50.866;5.420;2024-01-16T09:08:06;6.82;;;2.85;;
83288;SDS011;73193;50.866;5.420;2024-01-16T09:09:36;8.35;;;3.50;;
83288;SDS011;73193;50.866;5.420;2024-01-16T09:11:07;6.38;;;2.97;;
83288;SDS011;73193;50.866;5.420;2024-01-16T09:12:38;6.85;;;3.90;;
83288;SDS011;73193;50.866;5.420;2024-01-16T09:14:08;7.63;;;2.95;;